createdAt,value
2023-05-18T00:08:40.619Z,5.10
2023-05-18T00:18:45.508Z,4.80
2023-05-18T00:28:48.736Z,8.40
2023-05-18T00:38:51.861Z,6.20
2023-05-18T00:48:57.440Z,5.90
2023-05-18T00:59:03.254Z,8.50
2023-05-18T01:09:09.379Z,6.10
2023-05-18T01:19:46.530Z,7.10
2023-05-18T01:29:50.929Z,6.70
2023-05-18T01:39:57.075Z,10.50
2023-05-18T01:50:04.430Z,6.90
2023-05-18T02:00:10.265Z,4.90
2023-05-18T02:10:19.489Z,3.80
2023-05-18T02:20:22.692Z,4.10
2023-05-18T02:30:29.386Z,3.60
2023-05-18T02:40:33.032Z,3.80
2023-05-18T02:50:37.041Z,3.70
2023-05-18T03:00:41.684Z,2.10
2023-05-18T03:10:45.886Z,2.50
2023-05-18T03:20:52.379Z,2.40
2023-05-18T03:30:55.973Z,2.90
2023-05-18T03:40:59.751Z,2.40
2023-05-18T03:51:02.994Z,3.10
2023-05-18T04:01:07.212Z,1.90
2023-05-18T04:11:11.908Z,2.50
2023-05-18T04:21:16.339Z,1.50
2023-05-18T04:31:22.045Z,1.90
2023-05-18T04:41:26.406Z,2.90
2023-05-18T04:51:36.222Z,12.40
2023-05-18T05:01:43.491Z,6.50
2023-05-18T05:11:48.613Z,5.20
2023-05-18T05:21:52.603Z,6.00
2023-05-18T05:31:57.300Z,4.90
2023-05-18T05:42:01.095Z,4.50
2023-05-18T05:52:05.954Z,5.10
2023-05-18T06:02:10.069Z,6.00
2023-05-18T06:12:13.761Z,5.40
2023-05-18T06:22:17.054Z,8.30
2023-05-18T06:32:37.890Z,6.60
2023-05-18T06:42:43.561Z,9.00
2023-05-18T06:53:11.841Z,3.60
2023-05-18T07:03:15.252Z,8.40
2023-05-18T07:13:19.717Z,4.20
2023-05-18T07:23:23.545Z,4.10
2023-05-18T07:33:26.645Z,2.90
2023-05-18T07:43:29.891Z,2.80
2023-05-18T07:53:33.047Z,8.60
2023-05-18T08:03:36.407Z,6.20
2023-05-18T08:13:39.620Z,4.60
2023-05-18T08:23:42.852Z,2.80
2023-05-18T08:33:46.033Z,3.80
2023-05-18T08:43:54.188Z,4.40
2023-05-18T08:53:58.945Z,5.80
2023-05-18T09:04:02.655Z,4.80
2023-05-18T09:14:05.966Z,4.20
2023-05-18T09:24:09.109Z,3.40
2023-05-18T09:34:13.356Z,5.20
2023-05-18T09:44:18.017Z,5.80
2023-05-18T09:54:23.652Z,8.30
2023-05-18T10:04:41.925Z,7.90
2023-05-18T10:14:46.437Z,6.40
2023-05-18T10:24:52.980Z,13.00
2023-05-18T10:35:00.752Z,9.70
2023-05-18T10:55:09.006Z,6.40
2023-05-18T11:05:12.863Z,5.00
2023-05-18T11:15:19.931Z,2.90
2023-05-18T11:25:29.192Z,2.80
2023-05-18T11:35:34.859Z,3.70
2023-05-18T11:45:52.445Z,3.30
2023-05-18T11:55:56.831Z,3.20
2023-05-18T12:06:01.156Z,2.40
2023-05-18T12:16:06.758Z,3.00
2023-05-18T12:26:10.122Z,2.10
2023-05-18T12:36:14.518Z,2.30
2023-05-18T12:46:18.185Z,3.20
2023-05-18T12:56:28.895Z,3.40
2023-05-18T13:06:42.775Z,5.90
2023-05-18T13:16:46.106Z,8.80
2023-05-18T13:26:49.584Z,3.40
2023-05-18T13:36:52.911Z,4.20
2023-05-18T13:46:56.178Z,4.40
2023-05-18T13:56:59.684Z,4.90
2023-05-18T14:07:06.194Z,5.60
2023-05-18T14:17:11.454Z,6.50
2023-05-18T14:27:33.594Z,4.60
2023-05-18T14:37:39.299Z,7.00
2023-05-18T14:47:46.679Z,8.80
2023-05-18T14:57:50.201Z,5.50
2023-05-18T15:07:53.557Z,8.70
2023-05-18T15:18:02.582Z,4.50
2023-05-18T15:28:11.713Z,19.70
2023-05-18T15:38:17.578Z,12.20
2023-05-18T15:48:38.000Z,17.40
2023-05-18T15:58:44.829Z,19.00
2023-05-18T16:08:48.289Z,21.90
2023-05-18T16:18:56.678Z,23.20
2023-05-18T16:29:00.505Z,10.60
2023-05-18T16:39:03.923Z,14.00
2023-05-18T16:49:07.096Z,13.40
2023-05-18T16:59:10.669Z,11.80
2023-05-18T17:09:13.938Z,6.80
2023-05-18T17:19:19.718Z,11.30
2023-05-18T17:29:25.449Z,8.40
2023-05-18T17:39:28.815Z,6.80
2023-05-18T17:49:35.126Z,7.30
2023-05-18T17:59:40.731Z,6.20
2023-05-18T18:09:44.235Z,6.20
2023-05-18T18:19:50.330Z,5.60
2023-05-18T18:29:56.623Z,5.70
2023-05-18T18:40:10.437Z,4.70
2023-05-18T18:50:33.749Z,4.40
2023-05-18T19:00:39.814Z,5.60
2023-05-18T19:10:52.278Z,5.00
2023-05-18T19:21:13.089Z,5.30
2023-05-18T19:31:24.827Z,5.80
2023-05-18T19:41:36.607Z,5.30
2023-05-18T19:51:53.495Z,5.30
2023-05-18T20:02:05.037Z,5.20
2023-05-18T20:12:32.493Z,4.50
2023-05-18T20:22:37.070Z,4.80
2023-05-18T20:32:42.383Z,4.80
2023-05-18T20:53:26.227Z,2.80
2023-05-18T21:03:31.629Z,2.30
2023-05-18T21:13:36.977Z,4.60
2023-05-18T21:23:40.404Z,4.70
2023-05-18T21:33:47.926Z,3.30
2023-05-18T21:43:54.528Z,4.30
2023-05-18T21:54:02.203Z,3.60
2023-05-18T22:04:05.317Z,4.20
2023-05-18T22:14:08.503Z,3.80
2023-05-18T22:24:11.651Z,5.10
2023-05-18T22:34:15.292Z,6.10
2023-05-18T22:44:18.455Z,7.00
2023-05-18T22:54:21.848Z,9.00
2023-05-18T23:04:24.937Z,9.10
2023-05-18T23:14:31.342Z,8.60
2023-05-18T23:24:34.565Z,10.70
2023-05-18T23:34:37.863Z,8.30
2023-05-18T23:44:41.381Z,10.70
2023-05-18T23:54:47.316Z,8.90
